Time;durP1;ratioP1;P1;durP2;ratioP2;P2;SDS_P1;SDS_P2;PMS_P1;PMS_P2;Temp;Humidity;BMP_temperature;BMP_pressure;BME280_temperature;BME280_humidity;BME280_pressure;Samples;Min_cycle;Max_cycle;Signal;HPM_P1;HPM_P2
2022/04/14 00:02:08;;;;;;;21.90;15.88;;;13.80;99.90;;;;;;4991558;28;20192;-77
2022/04/14 00:04:35;;;;;;;21.60;14.98;;;14.00;99.90;;;;;;4992754;28;20255;-78
2022/04/14 00:07:02;;;;;;;20.75;15.10;;;13.90;99.90;;;;;;4991336;28;20211;-77
2022/04/14 00:09:28;;;;;;;19.30;14.73;;;13.80;99.90;;;;;;4992613;28;20690;-77
2022/04/14 00:11:54;;;;;;;19.05;14.98;;;13.80;99.90;;;;;;4992587;28;20185;-77
2022/04/14 00:14:20;;;;;;;17.27;14.68;;;13.80;99.90;;;;;;4992260;28;20208;-77
2022/04/14 00:16:45;;;;;;;24.63;14.85;;;13.90;99.90;;;;;;4992728;28;20169;-77
2022/04/14 00:19:11;;;;;;;21.55;16.55;;;14.00;99.90;;;;;;4992559;28;20168;-76
2022/04/14 00:21:37;;;;;;;19.50;15.15;;;14.00;99.90;;;;;;4992498;28;20565;-76
2022/04/14 00:24:03;;;;;;;19.10;15.00;;;14.10;99.90;;;;;;4992362;28;20189;-77
2022/04/14 00:26:29;;;;;;;17.17;14.65;;;13.80;99.90;;;;;;4992193;28;20689;-79
2022/04/14 00:28:54;;;;;;;23.65;12.73;;;13.60;99.90;;;;;;4992680;28;20174;-77
2022/04/14 00:31:20;;;;;;;16.70;13.43;;;13.60;99.90;;;;;;4991331;28;20673;-78
2022/04/14 00:33:45;;;;;;;18.33;14.32;;;13.60;99.90;;;;;;4992544;28;20688;-77
2022/04/14 00:36:11;;;;;;;19.92;13.93;;;13.60;99.90;;;;;;4994223;28;20181;-76
2022/04/14 00:38:36;;;;;;;16.70;14.10;;;13.60;99.90;;;;;;4995952;28;20254;-77
2022/04/14 00:41:02;;;;;;;20.30;14.68;;;13.70;99.90;;;;;;4994569;28;20181;-77
2022/04/14 00:43:29;;;;;;;23.33;14.15;;;13.70;99.90;;;;;;4996009;28;20720;-77
2022/04/14 00:45:55;;;;;;;17.48;14.10;;;13.80;99.90;;;;;;4995788;28;20281;-77
2022/04/14 00:48:20;;;;;;;18.05;15.02;;;13.80;99.90;;;;;;4995911;28;20537;-77
2022/04/14 00:50:46;;;;;;;17.58;13.32;;;13.70;99.90;;;;;;4995854;28;20193;-77
2022/04/14 00:53:12;;;;;;;15.18;13.35;;;13.70;99.90;;;;;;4995561;28;20189;-77
2022/04/14 00:55:38;;;;;;;20.35;14.23;;;13.60;99.90;;;;;;4995940;28;20165;-77
2022/04/14 00:58:04;;;;;;;15.93;13.50;;;13.60;99.90;;;;;;4995794;28;20161;-77
2022/04/14 01:00:29;;;;;;;21.13;15.13;;;13.80;99.90;;;;;;4995529;28;20212;-77
2022/04/14 01:02:55;;;;;;;19.52;13.25;;;13.70;99.90;;;;;;4995610;28;20181;-77
2022/04/14 01:05:22;;;;;;;16.23;13.82;;;13.50;99.90;;;;;;4995079;28;20169;-77
2022/04/14 01:07:49;;;;;;;21.77;14.52;;;13.60;99.90;;;;;;4995512;28;20264;-77
2022/04/14 01:10:15;;;;;;;19.05;14.63;;;13.60;99.90;;;;;;4995444;28;20173;-77
2022/04/14 01:12:42;;;;;;;23.75;14.75;;;13.60;99.90;;;;;;4995282;28;20224;-77
2022/04/14 01:15:14;;;;;;;17.70;14.40;;;13.70;99.90;;;;;;4994219;28;20633;-77
2022/04/14 01:17:41;;;;;;;18.15;13.63;;;13.60;99.90;;;;;;4995284;28;20645;-77
2022/04/14 01:20:09;;;;;;;19.95;14.57;;;13.50;99.90;;;;;;4995307;28;20215;-78
2022/04/14 01:22:38;;;;;;;16.10;14.30;;;13.50;99.90;;;;;;4994773;28;20216;-76
2022/04/14 01:25:05;;;;;;;24.20;14.27;;;13.40;99.90;;;;;;4995301;28;20191;-77
2022/04/14 01:27:30;;;;;;;20.17;15.05;;;13.20;99.90;;;;;;4995175;28;20251;-78
2022/04/14 01:29:56;;;;;;;25.27;14.55;;;13.30;99.90;;;;;;4994824;28;20173;-76
2022/04/14 01:32:22;;;;;;;16.80;14.90;;;13.10;99.90;;;;;;4993562;28;20260;-77
2022/04/14 01:34:49;;;;;;;21.13;16.15;;;13.20;99.90;;;;;;4994984;28;20664;-77
2022/04/14 01:37:15;;;;;;;18.10;14.20;;;13.30;99.90;;;;;;4995228;28;20205;-76
2022/04/14 01:39:41;;;;;;;30.65;14.98;;;13.40;99.90;;;;;;4995063;28;20656;-76
2022/04/14 01:42:07;;;;;;;20.20;15.20;;;13.30;99.90;;;;;;4995027;28;20165;-77
2022/04/14 01:44:33;;;;;;;18.83;15.50;;;13.30;99.90;;;;;;4994756;28;20204;-77
2022/04/14 01:46:59;;;;;;;17.83;15.25;;;13.20;99.90;;;;;;4994069;28;20205;-76
2022/04/14 01:49:24;;;;;;;17.65;14.90;;;13.20;99.90;;;;;;4994863;28;20219;-76
2022/04/14 01:51:50;;;;;;;23.35;15.38;;;13.20;99.90;;;;;;4994979;28;20664;-77
2022/04/14 01:54:16;;;;;;;20.52;15.55;;;13.30;99.90;;;;;;4994365;28;20204;-77
2022/04/14 01:56:42;;;;;;;18.42;15.90;;;13.20;99.90;;;;;;4994713;28;20248;-77
2022/04/14 01:59:09;;;;;;;22.58;15.77;;;13.30;99.90;;;;;;4994423;28;20165;-78
2022/04/14 02:01:35;;;;;;;28.83;18.20;;;13.40;99.90;;;;;;4994547;28;20528;-77
2022/04/14 02:04:02;;;;;;;21.63;15.50;;;13.40;99.90;;;;;;4994353;28;20190;-77
2022/04/14 02:06:31;;;;;;;18.77;15.48;;;13.30;99.90;;;;;;4994081;28;20215;-77
2022/04/14 02:08:56;;;;;;;19.52;15.73;;;13.30;99.90;;;;;;4993157;28;20228;-76
2022/04/14 02:11:22;;;;;;;17.27;14.40;;;13.30;99.90;;;;;;4994615;28;20735;-77
2022/04/14 02:13:48;;;;;;;19.27;14.57;;;13.30;99.90;;;;;;4994345;28;20670;-78
2022/04/14 02:16:14;;;;;;;19.00;14.57;;;13.20;99.90;;;;;;4994032;28;20181;-77
2022/04/14 02:18:40;;;;;;;21.75;15.95;;;13.20;99.90;;;;;;4993885;28;20231;-76
2022/04/14 02:21:05;;;;;;;18.25;14.45;;;13.20;99.90;;;;;;4994132;28;20589;-77
2022/04/14 02:23:31;;;;;;;19.17;15.30;;;13.10;99.90;;;;;;4993970;28;20193;-76
2022/04/14 02:25:56;;;;;;;17.65;15.15;;;13.10;99.90;;;;;;4993209;28;20213;-77
2022/04/14 02:28:22;;;;;;;17.88;15.30;;;13.10;99.90;;;;;;4992698;28;20272;-76
2022/04/14 02:30:48;;;;;;;22.35;15.18;;;13.20;99.90;;;;;;4993529;28;20224;-77
2022/04/14 02:33:14;;;;;;;20.55;16.02;;;13.20;99.90;;;;;;4992176;28;20227;-77
2022/04/14 02:35:40;;;;;;;23.05;16.45;;;13.30;99.90;;;;;;4994018;28;20173;-76
2022/04/14 02:38:05;;;;;;;23.15;16.73;;;13.30;99.90;;;;;;4993693;28;20232;-77
2022/04/14 02:40:31;;;;;;;24.88;16.35;;;13.20;99.90;;;;;;4993820;28;20169;-76
2022/04/14 02:42:57;;;;;;;27.40;17.30;;;13.20;99.90;;;;;;4993808;28;20272;-76
2022/04/14 02:45:23;;;;;;;19.15;14.40;;;13.20;99.90;;;;;;4993441;28;20204;-77
2022/04/14 02:47:49;;;;;;;19.65;15.73;;;12.90;99.90;;;;;;4993685;28;20185;-76
2022/04/14 02:50:15;;;;;;;22.63;14.77;;;12.90;99.90;;;;;;4993595;28;20207;-78
2022/04/14 02:52:42;;;;;;;22.15;14.65;;;12.70;99.90;;;;;;4993326;28;20509;-76
2022/04/14 02:55:08;;;;;;;32.90;18.45;;;12.80;99.90;;;;;;4993696;28;20170;-77
2022/04/14 02:57:34;;;;;;;23.75;17.83;;;12.80;99.90;;;;;;4993868;28;20196;-76
2022/04/14 03:00:00;;;;;;;22.98;17.55;;;12.90;99.90;;;;;;4992347;28;20626;-77
2022/04/14 03:02:26;;;;;;;33.85;17.70;;;12.80;99.90;;;;;;4993246;28;20169;-77
2022/04/14 03:04:53;;;;;;;18.67;16.23;;;12.80;99.90;;;;;;4993363;28;20196;-77
2022/04/14 03:07:19;;;;;;;24.50;16.50;;;12.70;99.90;;;;;;4993207;28;20209;-77
2022/04/14 03:09:45;;;;;;;20.90;15.80;;;12.60;99.90;;;;;;4993352;28;20165;-77
2022/04/14 03:12:12;;;;;;;23.90;17.30;;;12.60;99.90;;;;;;4993290;28;20179;-77
2022/04/14 03:14:37;;;;;;;25.25;17.58;;;12.60;99.90;;;;;;4993163;28;20545;-77
2022/04/14 03:17:03;;;;;;;24.35;15.77;;;12.80;99.90;;;;;;4993057;28;20173;-76
2022/04/14 03:19:29;;;;;;;27.33;16.88;;;12.60;99.90;;;;;;4993043;28;20240;-77
2022/04/14 03:21:54;;;;;;;26.60;16.67;;;12.50;99.90;;;;;;4991481;28;20252;-77
2022/04/14 03:24:20;;;;;;;24.60;16.75;;;12.50;99.90;;;;;;4992765;28;20192;-76
2022/04/14 03:26:45;;;;;;;17.98;14.95;;;12.50;99.90;;;;;;4992903;28;20240;-76
2022/04/14 03:29:11;;;;;;;29.05;18.35;;;12.50;99.90;;;;;;4992943;28;20687;-76
2022/04/14 03:31:37;;;;;;;30.63;17.15;;;12.70;99.90;;;;;;4993263;28;20169;-76
2022/04/14 03:34:02;;;;;;;22.50;16.52;;;12.70;99.90;;;;;;4993042;28;20193;-76
2022/04/14 03:36:28;;;;;;;24.38;17.70;;;12.60;99.90;;;;;;4992984;28;20527;-76
2022/04/14 03:38:53;;;;;;;27.25;16.90;;;12.50;99.90;;;;;;4991860;28;20170;-77
2022/04/14 03:41:19;;;;;;;25.05;15.80;;;12.40;99.90;;;;;;4991062;28;20173;-76
2022/04/14 03:43:44;;;;;;;27.95;18.23;;;12.50;99.90;;;;;;4992628;28;20185;-77
2022/04/14 03:46:10;;;;;;;25.58;18.05;;;12.40;99.90;;;;;;4993048;28;20214;-77
2022/04/14 03:48:36;;;;;;;31.60;17.67;;;12.60;99.90;;;;;;4991777;28;20175;-76
2022/04/14 03:51:01;;;;;;;25.33;17.83;;;12.60;99.90;;;;;;4992786;28;20629;-77
2022/04/14 03:53:28;;;;;;;28.30;18.58;;;12.40;99.90;;;;;;4992575;28;20239;-76
2022/04/14 03:55:53;;;;;;;35.10;19.05;;;12.40;99.90;;;;;;4992804;28;20165;-76
2022/04/14 03:58:19;;;;;;;28.38;19.73;;;12.40;99.90;;;;;;4992774;28;20173;-76
2022/04/14 04:00:45;;;;;;;30.73;20.48;;;12.40;99.90;;;;;;4992519;28;20171;-79
2022/04/14 04:03:12;;;;;;;23.98;18.83;;;12.60;99.90;;;;;;4992785;28;20603;-78
2022/04/14 04:05:38;;;;;;;32.28;18.17;;;12.70;99.90;;;;;;4991243;28;20193;-77
2022/04/14 04:08:07;;;;;;;29.70;19.42;;;12.60;99.90;;;;;;4992203;28;20219;-77
2022/04/14 04:10:33;;;;;;;25.67;18.30;;;12.50;99.90;;;;;;4993591;28;20176;-76
2022/04/14 04:12:58;;;;;;;28.50;18.95;;;12.40;99.90;;;;;;4995505;28;20547;-76
2022/04/14 04:15:24;;;;;;;25.70;18.42;;;12.50;99.90;;;;;;4996659;28;20614;-77
2022/04/14 04:17:53;;;;;;;27.17;19.30;;;12.50;99.90;;;;;;4996601;28;20170;-77
2022/04/14 04:20:20;;;;;;;26.10;19.20;;;12.40;99.90;;;;;;4996601;28;20177;-77
2022/04/14 04:22:46;;;;;;;30.88;18.33;;;12.30;99.90;;;;;;4994995;28;20256;-76
2022/04/14 04:25:11;;;;;;;24.85;18.38;;;12.30;99.90;;;;;;4994839;28;20177;-76
2022/04/14 04:27:37;;;;;;;25.90;17.75;;;12.30;99.90;;;;;;4995887;28;20216;-77
2022/04/14 04:30:07;;;;;;;26.05;17.20;;;12.20;99.90;;;;;;4996194;28;20597;-77
2022/04/14 04:32:34;;;;;;;24.00;18.30;;;12.20;99.90;;;;;;4996053;28;20681;-77
2022/04/14 04:35:04;;;;;;;23.67;16.85;;;12.30;99.90;;;;;;4996446;28;20249;-77
2022/04/14 04:37:30;;;;;;;24.38;16.73;;;12.30;99.90;;;;;;4994675;28;20177;-77
2022/04/14 04:39:56;;;;;;;27.23;17.90;;;12.20;99.90;;;;;;4996158;28;20227;-77
2022/04/14 04:42:22;;;;;;;22.13;16.75;;;12.10;99.90;;;;;;4995967;28;20179;-76
2022/04/14 04:44:47;;;;;;;24.42;17.13;;;12.10;99.90;;;;;;4995639;28;20185;-77
2022/04/14 04:47:13;;;;;;;25.63;16.60;;;12.10;99.90;;;;;;4996112;28;20586;-77
2022/04/14 04:49:39;;;;;;;21.65;16.20;;;11.90;99.90;;;;;;4996052;28;20199;-79
2022/04/14 04:52:04;;;;;;;26.50;17.17;;;11.80;99.90;;;;;;4995838;28;20218;-77
2022/04/14 04:54:30;;;;;;;28.38;17.63;;;11.70;99.90;;;;;;4995834;28;20204;-77
2022/04/14 04:56:56;;;;;;;20.42;16.35;;;11.80;99.90;;;;;;4994562;28;20256;-77
2022/04/14 04:59:21;;;;;;;23.00;16.20;;;11.90;99.90;;;;;;4995724;28;20280;-78
2022/04/14 05:01:47;;;;;;;21.23;15.95;;;12.00;99.90;;;;;;4995799;28;20238;-76
2022/04/14 05:04:13;;;;;;;25.95;17.83;;;12.10;99.90;;;;;;4995372;28;20204;-75
2022/04/14 05:06:38;;;;;;;26.02;18.90;;;12.10;99.90;;;;;;4995628;28;20232;-75
2022/04/14 05:09:04;;;;;;;28.85;19.70;;;12.10;99.90;;;;;;4995482;28;20173;-75
2022/04/14 05:11:30;;;;;;;35.22;21.35;;;12.10;99.90;;;;;;4995165;28;20660;-75
2022/04/14 05:13:56;;;;;;;37.13;22.48;;;12.10;99.90;;;;;;4995288;28;20197;-76
2022/04/14 05:16:21;;;;;;;29.73;20.75;;;12.10;99.90;;;;;;4995080;28;20519;-77
2022/04/14 05:18:47;;;;;;;34.85;20.70;;;12.10;99.90;;;;;;4995270;28;20177;-75
2022/04/14 05:21:13;;;;;;;33.17;20.38;;;11.80;99.90;;;;;;4994930;28;20653;-76
2022/04/14 05:23:39;;;;;;;31.48;19.92;;;11.80;99.90;;;;;;4993545;28;20197;-75
2022/04/14 05:26:05;;;;;;;30.27;19.45;;;11.80;99.90;;;;;;4995005;28;20205;-76
2022/04/14 05:28:30;;;;;;;30.88;18.85;;;11.90;99.90;;;;;;4995032;28;20173;-76
2022/04/14 05:30:56;;;;;;;26.23;18.30;;;12.00;99.90;;;;;;4994877;28;20169;-76
2022/04/14 05:33:21;;;;;;;29.42;17.83;;;12.10;99.90;;;;;;4994593;28;20280;-75
2022/04/14 05:35:47;;;;;;;26.95;18.23;;;12.30;99.90;;;;;;4995046;28;20173;-76
2022/04/14 05:38:13;;;;;;;34.55;17.42;;;12.40;99.90;;;;;;4993697;28;20161;-75
2022/04/14 05:40:43;;;;;;;21.42;16.10;;;12.40;99.90;;;;;;4994811;28;20161;-76
2022/04/14 05:43:17;;;;;;;29.33;18.02;;;12.50;99.90;;;;;;4994698;28;20193;-76
2022/04/14 05:45:48;;;;;;;26.02;17.73;;;12.50;99.90;;;;;;4994565;28;20656;-76
2022/04/14 05:48:15;;;;;;;22.65;16.33;;;12.50;99.90;;;;;;4995115;28;20173;-76
2022/04/14 05:50:42;;;;;;;22.40;16.35;;;12.60;99.90;;;;;;4995001;28;20170;-76
2022/04/14 05:53:08;;;;;;;21.02;15.93;;;12.60;99.90;;;;;;4994855;28;20193;-76
2022/04/14 05:55:35;;;;;;;21.70;16.65;;;12.30;99.90;;;;;;4994563;28;20575;-76
2022/04/14 05:58:01;;;;;;;18.67;16.00;;;12.30;99.90;;;;;;4994489;28;20255;-76
2022/04/14 06:00:27;;;;;;;21.10;15.82;;;12.60;99.90;;;;;;4995126;28;20168;-76
2022/04/14 06:02:53;;;;;;;20.60;16.27;;;12.60;99.90;;;;;;4994687;28;20185;-76
2022/04/14 06:05:18;;;;;;;19.75;16.00;;;12.50;99.90;;;;;;4993537;28;20173;-76
2022/04/14 06:07:44;;;;;;;23.00;16.55;;;12.50;99.90;;;;;;4993959;28;20169;-76
2022/04/14 06:10:09;;;;;;;24.23;17.10;;;12.60;99.90;;;;;;4994117;28;20201;-75
2022/04/14 06:12:35;;;;;;;20.17;14.93;;;12.50;99.90;;;;;;4992856;28;20174;-76
2022/04/14 06:15:01;;;;;;;19.83;14.48;;;12.50;99.90;;;;;;4993805;28;20161;-76
2022/04/14 06:17:26;;;;;;;18.33;15.15;;;12.60;99.90;;;;;;4994477;28;20184;-76
2022/04/14 06:19:52;;;;;;;21.65;14.80;;;12.60;99.90;;;;;;4994472;28;20170;-76
2022/04/14 06:22:18;;;;;;;18.83;14.13;;;12.50;99.90;;;;;;4994203;28;20565;-76
2022/04/14 06:24:43;;;;;;;15.40;13.98;;;12.60;99.90;;;;;;4993572;28;20185;-77
2022/04/14 06:27:09;;;;;;;20.73;14.40;;;12.60;99.90;;;;;;4993680;28;20629;-76
2022/04/14 06:29:34;;;;;;;15.32;13.75;;;12.70;99.90;;;;;;4993745;28;20177;-76
2022/04/14 06:32:00;;;;;;;18.50;13.88;;;12.80;99.90;;;;;;4993775;28;20169;-75
2022/04/14 06:34:25;;;;;;;16.15;14.50;;;13.00;99.90;;;;;;4995941;28;20227;-77
2022/04/14 06:36:52;;;;;;;22.42;14.68;;;13.10;99.90;;;;;;4993827;28;20200;-76
2022/04/14 06:39:17;;;;;;;22.13;15.27;;;13.50;99.90;;;;;;4993856;28;20169;-76
2022/04/14 06:41:43;;;;;;;22.02;14.88;;;13.90;99.90;;;;;;4993755;28;20184;-76
2022/04/14 06:44:08;;;;;;;22.13;15.57;;;14.00;99.90;;;;;;4992638;28;20192;-76
2022/04/14 06:46:34;;;;;;;16.52;13.98;;;14.10;99.90;;;;;;4994050;28;20209;-81
2022/04/14 06:49:00;;;;;;;22.80;15.55;;;14.30;99.90;;;;;;4996464;28;20562;-79
2022/04/14 06:51:25;;;;;;;16.55;14.27;;;14.40;99.90;;;;;;4995863;28;20176;-79
2022/04/14 06:53:51;;;;;;;19.95;15.27;;;14.50;99.90;;;;;;4993546;28;20197;-75
2022/04/14 06:56:17;;;;;;;21.58;15.23;;;14.60;99.90;;;;;;4991948;28;20253;-76
2022/04/14 06:58:42;;;;;;;18.25;14.63;;;14.80;99.90;;;;;;4993011;28;20538;-76
2022/04/14 07:01:08;;;;;;;18.38;14.23;;;14.90;99.90;;;;;;4992375;28;20165;-76
2022/04/14 07:03:34;;;;;;;16.70;14.57;;;15.10;99.90;;;;;;4993110;28;20216;-76
2022/04/14 07:06:00;;;;;;;30.33;15.73;;;15.00;99.90;;;;;;4993558;28;20235;-82
2022/04/14 07:08:27;;;;;;;25.70;15.02;;;15.00;99.90;;;;;;4993682;28;20169;-75
2022/04/14 07:10:53;;;;;;;31.20;15.75;;;14.90;99.90;;;;;;4993400;28;20181;-82
2022/04/14 07:13:19;;;;;;;24.75;14.75;;;14.80;99.90;;;;;;4993131;28;20539;-83
2022/04/14 07:15:45;;;;;;;18.55;14.02;;;14.70;99.90;;;;;;4992649;28;20177;-75
2022/04/14 07:18:11;;;;;;;19.20;14.02;;;14.70;99.90;;;;;;4993330;28;20169;-76
2022/04/14 07:20:37;;;;;;;26.38;14.25;;;14.90;99.90;;;;;;4993301;28;20215;-75
2022/04/14 07:23:05;;;;;;;22.73;11.82;;;14.80;99.90;;;;;;4993203;28;20181;-76
2022/04/14 07:25:33;;;;;;;15.43;12.73;;;14.70;99.90;;;;;;4993412;28;20655;-78
2022/04/14 07:27:59;;;;;;;22.95;13.32;;;14.70;99.90;;;;;;4992982;28;20276;-80
2022/04/14 07:30:26;;;;;;;23.58;12.95;;;14.80;99.90;;;;;;4992887;28;20506;-80
2022/04/14 07:32:53;;;;;;;17.10;12.48;;;14.70;99.90;;;;;;4993334;28;20195;-78
2022/04/14 07:35:22;;;;;;;21.92;11.55;;;14.70;99.90;;;;;;4993413;28;20169;-82
2022/04/14 07:37:48;;;;;;;16.75;11.88;;;14.60;99.90;;;;;;4993194;28;20188;-81
2022/04/14 07:40:14;;;;;;;25.15;12.23;;;14.70;99.90;;;;;;4993463;28;20181;-81
2022/04/14 07:42:41;;;;;;;26.30;11.43;;;14.90;99.90;;;;;;4992728;28;20235;-78
2022/04/14 07:45:09;;;;;;;36.72;11.85;;;14.80;99.90;;;;;;4993054;28;20179;-82
2022/04/14 07:47:35;;;;;;;12.18;10.68;;;15.00;99.90;;;;;;4997071;28;20208;-79
2022/04/14 07:50:00;;;;;;;19.10;12.77;;;15.30;99.90;;;;;;4996863;28;20175;-80
2022/04/14 07:52:26;;;;;;;22.83;13.57;;;15.50;99.90;;;;;;4996692;28;20173;-78
2022/04/14 07:54:52;;;;;;;18.42;11.40;;;15.40;99.90;;;;;;4996648;28;20185;-80
2022/04/14 07:57:17;;;;;;;22.85;11.02;;;15.30;99.90;;;;;;4991988;28;20177;-83
2022/04/14 07:59:43;;;;;;;18.75;10.95;;;15.40;99.90;;;;;;4994589;28;20177;-81
2022/04/14 08:02:09;;;;;;;16.60;11.80;;;15.50;99.90;;;;;;4995045;28;20172;-79
2022/04/14 08:04:34;;;;;;;16.25;10.18;;;15.70;99.90;;;;;;4994759;28;20576;-78
2022/04/14 08:07:00;;;;;;;17.95;9.15;;;15.70;99.90;;;;;;4996717;28;20217;-78
2022/04/14 08:09:25;;;;;;;18.63;9.63;;;15.60;99.90;;;;;;4996628;28;20219;-77
2022/04/14 08:11:51;;;;;;;14.60;8.48;;;15.60;99.90;;;;;;4996585;28;20495;-81
2022/04/14 08:14:17;;;;;;;9.75;8.43;;;15.60;99.90;;;;;;4994845;28;20564;-80
2022/04/14 08:16:43;;;;;;;14.85;10.65;;;15.60;99.90;;;;;;4996308;28;20582;-85
2022/04/14 08:19:08;;;;;;;17.02;10.07;;;15.60;99.90;;;;;;4996207;28;20265;-87
2022/04/14 08:21:34;;;;;;;16.70;10.43;;;15.90;99.90;;;;;;4996705;28;20177;-86
2022/04/14 08:24:01;;;;;;;25.60;10.38;;;15.70;99.90;;;;;;4995543;28;20284;-85
2022/04/14 08:26:26;;;;;;;19.10;11.52;;;16.00;99.90;;;;;;4996799;28;20213;-87
2022/04/14 08:28:55;;;;;;;17.20;13.00;;;16.10;99.90;;;;;;4996380;28;20173;-84
2022/04/14 08:31:21;;;;;;;13.70;10.40;;;16.20;99.90;;;;;;4995488;28;20177;-84
2022/04/14 08:33:48;;;;;;;17.80;10.43;;;16.30;99.90;;;;;;4994922;28;20200;-84
2022/04/14 08:36:15;;;;;;;12.20;10.40;;;16.10;99.90;;;;;;4995558;28;20252;-84
2022/04/14 08:38:45;;;;;;;11.35;10.15;;;16.20;99.90;;;;;;4995456;28;20177;-85
2022/04/14 08:41:13;;;;;;;17.13;10.48;;;16.20;99.90;;;;;;4995764;28;20173;-83
2022/04/14 08:44:10;;;;;;;14.23;11.18;;;16.20;99.90;;;;;;4995014;28;20598;-84
2022/04/14 08:46:39;;;;;;;18.27;9.85;;;16.10;99.90;;;;;;4992773;28;20220;-84
2022/04/14 08:49:07;;;;;;;17.85;10.60;;;16.30;99.90;;;;;;4994904;28;20257;-83
2022/04/14 08:51:36;;;;;;;18.85;10.13;;;16.50;99.90;;;;;;4995435;28;20223;-85
2022/04/14 08:54:02;;;;;;;13.20;8.80;;;16.70;99.90;;;;;;4995827;28;20185;-83
2022/04/14 08:56:29;;;;;;;12.52;9.23;;;16.70;99.90;;;;;;4994618;28;20552;-84
2022/04/14 08:58:55;;;;;;;15.98;9.35;;;16.90;99.90;;;;;;4995902;28;20196;-84
2022/04/14 09:01:25;;;;;;;15.35;8.65;;;17.00;99.90;;;;;;4995003;28;20236;-83
2022/04/14 09:03:55;;;;;;;10.93;7.15;;;17.00;99.90;;;;;;4994668;28;20204;-84
2022/04/14 09:06:22;;;;;;;12.32;8.65;;;17.20;99.90;;;;;;4994124;28;20208;-82
2022/04/14 09:08:48;;;;;;;13.63;9.57;;;17.30;99.90;;;;;;4994405;28;20173;-84
2022/04/14 09:11:13;;;;;;;13.02;8.25;;;17.50;99.90;;;;;;4994351;28;20705;-84
2022/04/14 09:13:43;;;;;;;10.38;7.78;;;17.40;99.90;;;;;;4994008;28;20582;-83
2022/04/14 09:16:09;;;;;;;10.15;7.45;;;17.60;99.90;;;;;;4994179;28;20170;-83
2022/04/14 09:18:35;;;;;;;15.70;8.57;;;17.80;99.90;;;;;;4995711;28;20172;-85
2022/04/14 09:21:06;;;;;;;11.30;7.40;;;17.80;99.90;;;;;;4998614;28;20181;-82
2022/04/14 09:23:32;;;;;;;7.07;6.40;;;17.90;99.90;;;;;;4992988;28;20201;-82
2022/04/14 09:26:04;;;;;;;11.93;6.75;;;18.00;99.90;;;;;;4999558;28;20295;-82
2022/04/14 09:28:30;;;;;;;14.60;7.50;;;18.00;99.90;;;;;;4993132;28;20630;-82
2022/04/14 09:31:06;;;;;;;7.07;6.47;;;18.10;99.90;;;;;;4996744;28;20173;-79
2022/04/14 09:33:34;;;;;;;11.82;6.32;;;18.10;99.90;;;;;;4983176;28;20252;-80
2022/04/14 09:36:06;;;;;;;6.80;4.80;;;18.00;99.90;;;;;;4980733;28;20177;-82
2022/04/14 09:38:55;;;;;;;7.45;6.03;;;18.10;99.90;;;;;;4982820;28;20189;-80
2022/04/14 09:41:31;;;;;;;6.60;4.93;;;18.20;99.90;;;;;;5000333;28;20180;-82
2022/04/14 09:43:59;;;;;;;9.45;3.80;;;18.30;99.90;;;;;;4998305;28;20201;-81
2022/04/14 09:46:25;;;;;;;8.45;5.13;;;18.30;99.90;;;;;;4997016;28;20641;-83
2022/04/14 09:49:11;;;;;;;8.15;5.88;;;18.50;99.90;;;;;;4997511;28;20180;-82
2022/04/14 09:51:47;;;;;;;6.40;4.63;;;18.80;99.90;;;;;;4998137;28;20189;-83
2022/04/14 09:54:17;;;;;;;8.10;4.97;;;19.00;99.90;;;;;;5000303;28;20189;-89
2022/04/14 09:56:54;;;;;;;5.50;5.00;;;19.00;99.90;;;;;;5002040;28;20177;-89
2022/04/14 09:59:22;;;;;;;5.40;4.90;;;19.20;99.90;;;;;;5006690;28;20241;-85
2022/04/14 10:01:49;;;;;;;6.18;5.50;;;19.20;99.90;;;;;;5011295;28;20195;-86
2022/04/14 10:04:35;;;;;;;3.35;3.05;;;19.00;99.90;;;;;;5002220;28;20189;-84
2022/04/14 10:07:06;;;;;;;2.95;2.60;;;19.00;99.90;;;;;;5006449;28;20228;-94
2022/04/14 10:09:35;;;;;;;5.55;2.53;;;18.90;99.90;;;;;;5000956;28;20224;-89
2022/04/14 10:12:04;;;;;;;4.43;2.90;;;18.90;99.90;;;;;;5001220;28;20197;-85
2022/04/14 10:14:29;;;;;;;4.13;3.47;;;18.90;99.90;;;;;;5000116;28;20671;-90
2022/04/14 10:16:57;;;;;;;4.43;3.42;;;19.00;99.90;;;;;;4999386;28;20205;-86
2022/04/14 10:19:23;;;;;;;9.23;4.03;;;19.30;99.90;;;;;;5000288;28;20236;-86
2022/04/14 10:21:50;;;;;;;3.38;3.00;;;19.30;99.90;;;;;;5002315;28;20171;-86
2022/04/14 10:24:18;;;;;;;4.50;3.10;;;19.40;99.90;;;;;;4998999;28;20653;-90
2022/04/14 10:26:45;;;;;;;4.93;3.20;;;19.50;99.90;;;;;;4995587;28;20219;-86
2022/04/14 10:29:14;;;;;;;3.47;3.15;;;19.40;99.90;;;;;;4995579;28;20181;-88
2022/04/14 10:31:40;;;;;;;5.78;3.13;;;19.30;99.90;;;;;;4996376;28;20169;-86
2022/04/14 10:34:07;;;;;;;3.35;3.05;;;19.30;99.90;;;;;;4994856;28;20708;-87
2022/04/14 10:36:38;;;;;;;4.95;3.05;;;19.30;99.90;;;;;;4994251;28;20185;-86
2022/04/14 10:39:05;;;;;;;2.95;2.75;;;19.30;99.90;;;;;;4995074;28;20185;-87
2022/04/14 10:41:35;;;;;;;3.35;3.00;;;19.30;99.90;;;;;;4994779;28;20192;-86
2022/04/14 10:44:01;;;;;;;3.25;2.88;;;19.30;99.90;;;;;;4978081;28;20220;-88
2022/04/14 10:46:40;;;;;;;7.75;4.15;;;19.20;99.90;;;;;;4995157;28;20201;-87
2022/04/14 10:49:14;;;;;;;4.07;3.17;;;19.20;99.90;;;;;;4994268;28;20617;-89
2022/04/14 10:51:39;;;;;;;2.67;2.45;;;19.50;99.90;;;;;;4995654;28;20184;-85
2022/04/14 10:54:12;;;;;;;4.00;2.85;;;19.40;99.90;;;;;;4995593;28;20189;-83
2022/04/14 10:56:38;;;;;;;10.45;3.35;;;19.30;99.90;;;;;;4993122;28;20173;-89
2022/04/14 10:59:09;;;;;;;20.80;17.02;;;19.30;99.90;;;;;;4994455;28;20173;-86
2022/04/14 11:01:47;;;;;;;6.05;3.78;;;19.50;99.90;;;;;;4993011;28;20169;-90
2022/04/14 11:04:46;;;;;;;4.72;3.78;;;19.70;99.90;;;;;;4996374;28;20192;-85
2022/04/14 11:07:16;;;;;;;5.90;3.50;;;20.00;99.90;;;;;;4992986;28;20209;-91
2022/04/14 11:09:45;;;;;;;3.90;3.28;;;20.10;99.90;;;;;;4993346;28;20165;-87
2022/04/14 11:12:13;;;;;;;5.78;3.30;;;20.40;99.90;;;;;;4998493;28;20247;-89
2022/04/14 11:14:56;;;;;;;5.72;3.60;;;20.60;99.90;;;;;;4995007;28;20216;-84
2022/04/14 11:18:04;;;;;;;10.57;4.10;;;20.80;99.90;;;;;;4992392;28;20267;-82
2022/04/14 11:20:35;;;;;;;4.93;3.47;;;20.70;99.90;;;;;;4993027;28;20637;-81
2022/04/14 11:23:26;;;;;;;5.25;3.10;;;21.10;99.90;;;;;;4992708;28;20189;-82
2022/04/14 11:26:04;;;;;;;7.25;2.60;;;21.20;99.90;;;;;;4992696;28;20224;-80
2022/04/14 11:28:34;;;;;;;5.03;3.63;;;21.70;99.90;;;;;;4991917;28;20177;-80
2022/04/14 11:31:19;;;;;;;4.50;3.13;;;21.80;99.90;;;;;;4991758;28;20238;-81
2022/04/14 11:33:46;;;;;;;5.00;3.53;;;21.50;99.90;;;;;;4991856;28;20259;-80
2022/04/14 11:36:21;;;;;;;4.43;3.00;;;21.50;99.90;;;;;;4992874;28;20177;-80
2022/04/14 11:38:54;;;;;;;3.67;3.10;;;21.40;99.90;;;;;;4991440;28;20168;-83
2022/04/14 11:41:32;;;;;;;3.40;3.10;;;21.30;99.90;;;;;;4993313;28;20215;-83
2022/04/14 11:44:01;;;;;;;5.30;4.03;;;21.30;99.90;;;;;;4991247;28;20275;-81
2022/04/14 11:46:27;;;;;;;8.23;4.20;;;21.20;99.90;;;;;;4991401;28;20255;-80
2022/04/14 11:48:53;;;;;;;12.80;4.88;;;21.10;99.90;;;;;;4992806;28;20181;-80
2022/04/14 11:51:19;;;;;;;5.43;4.45;;;21.10;99.90;;;;;;4992632;28;20211;-84
2022/04/14 11:53:45;;;;;;;7.57;4.30;;;21.00;99.90;;;;;;4992769;28;20189;-81
2022/04/14 11:56:18;;;;;;;8.45;4.55;;;20.80;99.90;;;;;;4991330;28;20177;-79
2022/04/14 11:58:45;;;;;;;9.43;4.85;;;20.60;99.90;;;;;;4993134;28;20173;-81
2022/04/14 12:01:11;;;;;;;4.93;4.13;;;20.40;99.90;;;;;;4991535;28;20264;-82
2022/04/14 12:03:37;;;;;;;7.30;3.85;;;20.20;99.90;;;;;;4992442;28;20197;-82
2022/04/14 12:06:08;;;;;;;10.55;5.28;;;20.20;99.90;;;;;;4991823;28;20227;-81
2022/04/14 12:08:34;;;;;;;11.30;4.28;;;20.30;99.90;;;;;;4992955;28;20843;-84
2022/04/14 12:11:04;;;;;;;5.13;3.90;;;20.30;99.90;;;;;;4991703;28;20712;-84
2022/04/14 12:13:35;;;;;;;4.93;3.25;;;20.30;99.90;;;;;;4992819;28;20189;-84
2022/04/14 12:16:03;;;;;;;5.25;3.25;;;20.40;99.90;;;;;;4993428;28;20170;-84
2022/04/14 12:18:28;;;;;;;14.73;4.20;;;20.60;99.90;;;;;;4992148;28;20268;-84
2022/04/14 12:20:54;;;;;;;3.50;2.95;;;20.60;99.90;;;;;;4991696;28;20276;-84
2022/04/14 12:23:20;;;;;;;6.85;3.67;;;21.00;99.90;;;;;;4991740;28;20189;-83
2022/04/14 12:25:46;;;;;;;3.95;2.92;;;21.40;99.90;;;;;;4992963;28;20263;-84
2022/04/14 12:28:11;;;;;;;6.40;4.13;;;21.50;99.90;;;;;;4993293;28;20181;-86
2022/04/14 12:30:42;;;;;;;10.68;4.18;;;21.40;99.90;;;;;;4994407;28;20200;-84
2022/04/14 12:33:08;;;;;;;6.45;4.50;;;21.20;99.90;;;;;;4995483;28;20613;-82
2022/04/14 12:35:39;;;;;;;12.23;5.82;;;20.90;99.90;;;;;;4995403;28;20205;-82